createdAt,value
2023-05-04T00:00:09.489Z,1.03
2023-05-04T00:01:09.515Z,1.05
2023-05-04T00:02:09.510Z,1.03
2023-05-04T00:03:09.583Z,1.02
2023-05-04T00:04:09.671Z,0.99
2023-05-04T00:05:09.582Z,1.00
2023-05-04T00:06:09.586Z,0.98
2023-05-04T00:07:09.623Z,1.04
2023-05-04T00:08:09.599Z,0.98
2023-05-04T00:09:09.627Z,1.02
2023-05-04T00:10:09.682Z,1.04
2023-05-04T00:11:09.681Z,0.96
2023-05-04T00:12:09.719Z,0.97
2023-05-04T00:13:09.786Z,0.99
2023-05-04T00:14:09.765Z,1.00
2023-05-04T00:15:09.708Z,1.04
2023-05-04T00:16:11.086Z,1.02
2023-05-04T00:17:09.754Z,0.98
2023-05-04T00:18:09.801Z,0.97
2023-05-04T00:19:09.776Z,1.00
2023-05-04T00:20:09.817Z,0.98
2023-05-04T00:21:09.852Z,0.96
2023-05-04T00:22:09.854Z,1.02
2023-05-04T00:23:09.897Z,0.97
2023-05-04T00:24:09.912Z,1.01
2023-05-04T00:25:09.917Z,1.01
2023-05-04T00:26:09.965Z,0.96
2023-05-04T00:27:09.973Z,0.96
2023-05-04T00:28:09.969Z,1.02
2023-05-04T00:29:09.971Z,1.00
2023-05-04T00:30:09.995Z,1.00
2023-05-04T00:31:10.027Z,0.98
2023-05-04T00:32:10.078Z,0.98
2023-05-04T00:33:10.097Z,1.03
2023-05-04T00:34:10.075Z,0.99
2023-05-04T00:35:10.113Z,0.98
2023-05-04T00:36:10.145Z,0.99
2023-05-04T00:37:10.132Z,0.99
2023-05-04T00:38:10.186Z,0.97
2023-05-04T00:39:10.151Z,1.01
2023-05-04T00:40:10.186Z,1.00
2023-05-04T00:41:10.194Z,1.00
2023-05-04T00:42:10.243Z,0.97
2023-05-04T00:43:10.237Z,1.01
2023-05-04T00:44:10.262Z,0.97
2023-05-04T00:45:10.289Z,0.97
2023-05-04T00:46:10.325Z,1.01
2023-05-04T00:47:10.419Z,0.97
2023-05-04T00:48:10.526Z,1.02
2023-05-04T00:49:10.392Z,1.00
2023-05-04T00:50:10.444Z,0.99
2023-05-04T00:51:10.469Z,0.99
2023-05-04T00:52:10.449Z,0.98
2023-05-04T00:53:10.504Z,0.97
2023-05-04T00:54:10.486Z,0.99
2023-05-04T00:55:10.548Z,0.98
2023-05-04T00:56:10.538Z,1.01
2023-05-04T00:57:10.577Z,0.98
2023-05-04T00:58:10.582Z,0.96
2023-05-04T00:59:10.645Z,0.99
2023-05-04T01:00:10.642Z,0.92
2023-05-04T01:01:10.742Z,0.99
2023-05-04T01:02:11.131Z,0.97
2023-05-04T01:03:10.830Z,0.97
2023-05-04T01:04:10.833Z,0.95
2023-05-04T01:05:10.772Z,0.97
2023-05-04T01:06:10.798Z,0.97
2023-05-04T01:07:10.806Z,0.99
2023-05-04T01:08:10.875Z,0.97
2023-05-04T01:09:10.848Z,0.98
2023-05-04T01:10:10.914Z,0.94
2023-05-04T01:11:10.954Z,1.01
2023-05-04T01:12:10.952Z,1.04
2023-05-04T01:13:11.045Z,0.98
2023-05-04T01:14:10.997Z,0.96
2023-05-04T01:15:11.013Z,1.00
2023-05-04T01:16:11.034Z,0.95
2023-05-04T01:17:11.179Z,0.95
2023-05-04T01:18:11.172Z,0.97
2023-05-04T01:19:11.130Z,0.95
2023-05-04T01:20:11.134Z,0.95
2023-05-04T01:21:11.183Z,0.99
2023-05-04T01:22:11.189Z,0.95
2023-05-04T01:23:11.216Z,1.00
2023-05-04T01:24:11.248Z,0.93
2023-05-04T01:25:11.270Z,0.97
2023-05-04T01:26:11.304Z,0.95
2023-05-04T01:27:11.354Z,1.00
2023-05-04T01:28:11.371Z,0.97
2023-05-04T01:29:11.379Z,0.96
2023-05-04T01:30:11.422Z,0.98
2023-05-04T01:31:11.442Z,1.00
2023-05-04T01:32:11.625Z,0.94
2023-05-04T01:33:11.564Z,0.97
2023-05-04T01:34:11.496Z,0.93
2023-05-04T01:35:11.502Z,0.95
2023-05-04T01:36:11.555Z,0.96
2023-05-04T01:37:11.568Z,0.95
2023-05-04T01:38:11.591Z,0.96
2023-05-04T01:39:11.640Z,0.97
2023-05-04T01:40:11.671Z,0.96
2023-05-04T01:41:11.644Z,0.91
2023-05-04T01:42:11.683Z,0.95
2023-05-04T01:43:11.743Z,0.95
2023-05-04T01:44:11.732Z,0.98
2023-05-04T01:45:11.759Z,0.95
2023-05-04T01:46:11.879Z,0.94
2023-05-04T01:47:11.845Z,0.96
2023-05-04T01:48:11.870Z,0.94
2023-05-04T01:49:11.871Z,0.97
2023-05-04T01:50:11.888Z,0.95
2023-05-04T01:51:11.925Z,0.96
2023-05-04T01:52:11.971Z,0.94
2023-05-04T01:53:12.044Z,0.94
2023-05-04T01:54:12.016Z,0.92
2023-05-04T01:55:12.043Z,0.92
2023-05-04T01:56:12.073Z,0.93
2023-05-04T01:57:12.112Z,0.98
2023-05-04T01:58:12.124Z,0.95
2023-05-04T01:59:12.167Z,0.96
2023-05-04T02:00:12.210Z,0.94
2023-05-04T02:01:12.258Z,0.96
2023-05-04T02:02:12.255Z,0.94
2023-05-04T02:03:12.364Z,0.98
2023-05-04T02:04:12.419Z,0.96
2023-05-04T02:05:12.327Z,0.96
2023-05-04T02:06:12.362Z,0.95
2023-05-04T02:07:12.399Z,0.96
2023-05-04T02:08:12.400Z,0.97
2023-05-04T02:09:12.442Z,0.93
2023-05-04T02:10:12.480Z,0.95
2023-05-04T02:11:12.483Z,0.95
2023-05-04T02:12:12.563Z,0.97
2023-05-04T02:13:12.666Z,0.98
2023-05-04T02:14:12.592Z,0.95
2023-05-04T02:15:12.628Z,0.96
2023-05-04T02:16:12.672Z,0.91
2023-05-04T02:17:12.709Z,0.93
2023-05-04T02:18:12.740Z,0.94
2023-05-04T02:19:12.705Z,0.93
2023-05-04T02:20:12.766Z,0.90
2023-05-04T02:21:12.778Z,0.95
2023-05-04T02:22:12.858Z,0.93
2023-05-04T02:23:12.822Z,0.97
2023-05-04T02:24:12.883Z,0.91
2023-05-04T02:25:12.903Z,0.96
2023-05-04T02:26:12.919Z,0.92
2023-05-04T02:27:12.947Z,0.93
2023-05-04T02:28:13.009Z,0.95
2023-05-04T02:29:13.006Z,0.95
2023-05-04T02:30:13.047Z,0.93
2023-05-04T02:31:13.121Z,0.96
2023-05-04T02:32:13.085Z,0.92
2023-05-04T02:33:13.186Z,0.91
2023-05-04T02:34:13.171Z,0.92
2023-05-04T02:35:13.224Z,0.92
2023-05-04T02:36:13.218Z,0.94
2023-05-04T02:37:13.280Z,0.92
2023-05-04T02:38:13.314Z,0.95
2023-05-04T02:39:13.331Z,0.94
2023-05-04T02:40:13.395Z,0.92
2023-05-04T02:41:13.417Z,0.91
2023-05-04T02:42:13.435Z,0.93
2023-05-04T02:43:13.447Z,0.93
2023-05-04T02:44:13.475Z,0.93
2023-05-04T02:45:13.544Z,0.96
2023-05-04T02:46:13.554Z,0.93
2023-05-04T02:47:13.600Z,0.93
2023-05-04T02:48:13.658Z,0.92
2023-05-04T02:49:13.684Z,0.94
2023-05-04T02:50:13.696Z,0.95
2023-05-04T02:51:13.698Z,0.90
2023-05-04T02:52:13.767Z,0.93
2023-05-04T02:53:13.791Z,0.86
2023-05-04T02:54:13.808Z,0.93
2023-05-04T02:55:13.843Z,0.88
2023-05-04T02:56:13.899Z,0.92
2023-05-04T02:57:13.909Z,0.94
2023-05-04T02:58:13.950Z,0.94
2023-05-04T02:59:14.019Z,0.94
2023-05-04T03:00:14.039Z,0.90
2023-05-04T03:01:14.113Z,0.92
2023-05-04T03:02:14.116Z,0.93
2023-05-04T03:03:14.157Z,0.92
2023-05-04T03:04:14.284Z,0.93
2023-05-04T03:05:14.250Z,0.91
2023-05-04T03:06:14.271Z,0.92
2023-05-04T03:07:14.303Z,0.91
2023-05-04T03:08:14.325Z,0.91
2023-05-04T03:09:14.361Z,0.89
2023-05-04T03:10:14.413Z,0.89
2023-05-04T03:11:14.432Z,0.91
2023-05-04T03:12:14.478Z,0.93
2023-05-04T03:13:14.560Z,0.94
2023-05-04T03:14:14.525Z,0.91
2023-05-04T03:15:14.561Z,0.90
2023-05-04T03:16:14.680Z,0.91
2023-05-04T03:17:14.622Z,0.89
2023-05-04T03:18:14.671Z,0.92
2023-05-04T03:19:14.674Z,0.91
2023-05-04T03:20:14.734Z,0.92
2023-05-04T03:21:14.781Z,0.90
2023-05-04T03:22:14.797Z,0.91
2023-05-04T03:23:14.815Z,0.91
2023-05-04T03:24:14.868Z,0.93
2023-05-04T03:25:14.887Z,0.87
2023-05-04T03:26:14.916Z,0.88
2023-05-04T03:27:14.980Z,0.88
2023-05-04T03:28:15.004Z,0.94
2023-05-04T03:29:15.028Z,0.88
2023-05-04T03:30:15.098Z,0.90
2023-05-04T03:31:15.142Z,0.91
2023-05-04T03:32:15.213Z,0.90
2023-05-04T03:33:15.222Z,0.91
2023-05-04T03:34:15.204Z,0.92
2023-05-04T03:35:15.381Z,0.93
2023-05-04T03:36:15.274Z,0.93
2023-05-04T03:37:15.311Z,0.92
2023-05-04T03:38:15.378Z,0.90
2023-05-04T03:39:15.371Z,0.87
2023-05-04T03:40:15.436Z,0.90
2023-05-04T03:41:15.461Z,0.90
2023-05-04T03:42:15.521Z,0.88
2023-05-04T03:43:15.539Z,0.90
2023-05-04T03:44:15.550Z,0.90
2023-05-04T03:45:15.589Z,0.87
2023-05-04T03:46:15.686Z,0.93
2023-05-04T03:47:15.669Z,0.93
2023-05-04T03:48:15.691Z,0.90
2023-05-04T03:49:15.740Z,0.91
2023-05-04T03:50:15.766Z,0.89
2023-05-04T03:51:15.841Z,0.92
2023-05-04T03:52:15.861Z,0.91
2023-05-04T03:53:16.022Z,0.90
2023-05-04T03:54:15.969Z,0.88
2023-05-04T03:55:16.026Z,0.93
2023-05-04T03:56:16.173Z,0.87
2023-05-04T03:57:16.113Z,0.89
2023-05-04T03:58:16.114Z,0.88
2023-05-04T03:59:16.150Z,0.92
2023-05-04T04:00:16.213Z,0.90
2023-05-04T04:01:16.237Z,0.91
2023-05-04T04:02:16.685Z,0.91
2023-05-04T04:03:16.571Z,0.90
2023-05-04T04:04:16.435Z,0.89
2023-05-04T04:05:16.421Z,0.93
2023-05-04T04:06:16.456Z,0.88
2023-05-04T04:07:16.502Z,0.89
2023-05-04T04:08:16.518Z,0.87
2023-05-04T04:09:16.594Z,0.93
2023-05-04T04:10:16.602Z,0.91
2023-05-04T04:11:16.632Z,0.89
2023-05-04T04:12:16.708Z,0.91
2023-05-04T04:13:16.842Z,0.91
2023-05-04T04:14:16.769Z,0.89
2023-05-04T04:15:16.793Z,0.91
2023-05-04T04:16:16.853Z,0.91
2023-05-04T04:17:16.884Z,0.87
2023-05-04T04:18:16.910Z,0.90
2023-05-04T04:19:16.967Z,0.91
2023-05-04T04:20:17.012Z,0.91
2023-05-04T04:21:17.015Z,0.92
2023-05-04T04:22:17.093Z,0.91
2023-05-04T04:23:17.174Z,0.89
2023-05-04T04:24:17.167Z,0.87
2023-05-04T04:25:17.223Z,0.89
2023-05-04T04:26:17.270Z,0.91
2023-05-04T04:27:17.277Z,0.89
2023-05-04T04:28:17.326Z,0.89
2023-05-04T04:29:17.371Z,0.87
2023-05-04T04:30:17.430Z,0.91
2023-05-04T04:31:17.497Z,0.91
2023-05-04T04:32:17.490Z,0.88
2023-05-04T04:33:17.559Z,0.92
2023-05-04T04:34:17.565Z,0.90
2023-05-04T04:35:17.643Z,0.89
2023-05-04T04:36:17.652Z,0.92
2023-05-04T04:37:17.679Z,0.90
2023-05-04T04:38:17.735Z,0.90
2023-05-04T04:39:17.781Z,0.90
2023-05-04T04:40:17.786Z,0.90
2023-05-04T04:41:17.850Z,0.90
2023-05-04T04:42:17.865Z,0.91
2023-05-04T04:43:17.931Z,0.89
2023-05-04T04:44:17.953Z,0.91
2023-05-04T04:45:18.014Z,0.88
2023-05-04T04:46:18.098Z,0.86
2023-05-04T04:47:18.087Z,0.87
2023-05-04T04:48:18.136Z,0.89
2023-05-04T04:49:18.166Z,0.89
2023-05-04T04:50:18.232Z,0.89
2023-05-04T04:51:18.243Z,0.88
2023-05-04T04:52:18.328Z,0.91
2023-05-04T04:53:18.325Z,0.87
2023-05-04T04:54:18.364Z,0.89
2023-05-04T04:55:18.413Z,0.84
2023-05-04T04:56:18.468Z,0.88
2023-05-04T04:57:18.473Z,0.92
2023-05-04T04:58:18.523Z,0.88
2023-05-04T04:59:18.545Z,0.91
2023-05-04T05:00:18.631Z,0.88
2023-05-04T05:01:18.643Z,0.89
2023-05-04T05:02:18.702Z,0.90
2023-05-04T05:03:18.715Z,0.89
2023-05-04T05:04:18.764Z,0.86
2023-05-04T05:05:18.811Z,0.84
2023-05-04T05:06:18.819Z,0.89
2023-05-04T05:07:18.890Z,0.87
2023-05-04T05:08:18.906Z,0.87
2023-05-04T05:09:18.963Z,0.88
2023-05-04T05:10:19.004Z,0.83
2023-05-04T05:11:19.035Z,0.86
2023-05-04T05:12:19.072Z,0.85
2023-05-04T05:13:19.170Z,0.83
2023-05-04T05:14:19.131Z,0.84
2023-05-04T05:15:19.166Z,0.88
2023-05-04T05:16:19.311Z,0.87
2023-05-04T05:17:19.218Z,0.88
2023-05-04T05:18:19.253Z,0.88
2023-05-04T05:19:19.289Z,0.87
2023-05-04T05:20:20.254Z,0.86
2023-05-04T05:21:19.359Z,0.87
2023-05-04T05:22:19.382Z,0.87
2023-05-04T05:23:19.392Z,0.87
2023-05-04T05:24:19.468Z,0.82
2023-05-04T05:25:19.452Z,0.88
2023-05-04T05:26:19.493Z,0.81
2023-05-04T05:27:19.739Z,0.88
2023-05-04T05:28:19.564Z,0.84
2023-05-04T05:29:19.710Z,0.86
2023-05-04T05:30:19.636Z,0.82
2023-05-04T05:31:19.671Z,0.83
2023-05-04T05:32:19.720Z,0.84
2023-05-04T05:33:19.750Z,0.79
2023-05-04T05:34:19.814Z,0.79
2023-05-04T05:35:19.883Z,0.77
2023-05-04T05:36:22.706Z,0.79
2023-05-04T05:37:20.228Z,0.77
2023-05-04T05:38:19.913Z,0.82
2023-05-04T05:39:19.894Z,0.81
2023-05-04T05:40:19.847Z,0.76
2023-05-04T05:41:19.839Z,0.85
2023-05-04T05:42:19.923Z,0.85
2023-05-04T05:43:19.826Z,0.76
2023-05-04T05:44:19.894Z,0.81
2023-05-04T05:45:19.796Z,0.84
2023-05-04T05:46:19.916Z,0.92
2023-05-04T05:47:19.855Z,0.91
2023-05-04T05:48:19.847Z,0.94
2023-05-04T05:49:19.864Z,0.91
2023-05-04T05:50:19.937Z,0.93
2023-05-04T05:51:19.791Z,0.88
2023-05-04T05:52:19.779Z,0.84
2023-05-04T05:53:19.748Z,0.79
2023-05-04T05:54:19.754Z,0.85
2023-05-04T05:55:19.779Z,0.77
2023-05-04T05:56:19.772Z,0.72
2023-05-04T05:57:19.748Z,0.68
2023-05-04T05:58:19.719Z,0.65
2023-05-04T05:59:19.712Z,0.65
2023-05-04T06:00:20.294Z,0.66
2023-05-04T06:01:19.696Z,0.61
2023-05-04T06:02:19.880Z,0.61
2023-05-04T06:03:19.900Z,0.58
2023-05-04T06:04:19.789Z,0.56
2023-05-04T06:05:19.694Z,0.57
2023-05-04T06:06:19.728Z,0.57
2023-05-04T06:07:19.674Z,0.56
2023-05-04T06:08:19.672Z,0.57
2023-05-04T06:09:19.717Z,0.61
2023-05-04T06:10:19.728Z,0.61
2023-05-04T06:11:19.634Z,0.63
2023-05-04T06:12:19.640Z,0.65
2023-05-04T06:13:19.693Z,0.67
2023-05-04T06:14:19.644Z,0.74
2023-05-04T06:15:19.659Z,0.77
2023-05-04T06:16:19.782Z,0.86
2023-05-04T06:17:19.592Z,0.85
2023-05-04T06:18:19.617Z,0.88
2023-05-04T06:19:19.589Z,0.93
2023-05-04T06:20:19.586Z,1.00
2023-05-04T06:21:19.680Z,1.04
2023-05-04T06:22:19.567Z,1.09
2023-05-04T06:23:19.614Z,1.12
2023-05-04T06:24:19.551Z,1.17
2023-05-04T06:25:19.557Z,1.19
2023-05-04T06:26:19.523Z,1.26
2023-05-04T06:27:19.534Z,1.31
2023-05-04T06:28:19.530Z,1.34
2023-05-04T06:29:19.557Z,1.17
2023-05-04T06:30:19.498Z,1.14
2023-05-04T06:31:19.546Z,0.99
2023-05-04T06:32:19.627Z,1.01
2023-05-04T06:33:19.502Z,0.96
2023-05-04T06:34:19.479Z,0.94
2023-05-04T06:35:19.467Z,0.87
2023-05-04T06:36:19.483Z,0.80
2023-05-04T06:37:19.769Z,0.75
2023-05-04T06:38:19.440Z,0.74
2023-05-04T06:39:19.472Z,0.74
2023-05-04T06:40:19.446Z,0.65
2023-05-04T06:41:19.445Z,0.58
2023-05-04T06:42:19.720Z,0.53
2023-05-04T06:43:19.459Z,0.50
2023-05-04T06:44:19.516Z,0.50
2023-05-04T06:45:19.586Z,0.50
2023-05-04T06:46:19.755Z,0.50
2023-05-04T06:47:19.681Z,0.50
2023-05-04T06:48:19.788Z,0.50
2023-05-04T06:49:19.727Z,0.49
2023-05-04T06:50:19.688Z,0.50
2023-05-04T06:51:19.700Z,0.50
2023-05-04T06:52:19.706Z,0.50
2023-05-04T06:53:19.692Z,0.51
2023-05-04T06:54:19.701Z,0.50
2023-05-04T06:55:19.706Z,0.51
2023-05-04T06:56:19.739Z,0.50
2023-05-04T06:57:19.759Z,0.51
2023-05-04T06:58:19.778Z,0.50
2023-05-04T06:59:19.805Z,0.50
2023-05-04T07:00:19.829Z,0.50
2023-05-04T07:01:19.822Z,0.52
2023-05-04T07:02:19.868Z,0.51
2023-05-04T07:03:19.933Z,0.52
2023-05-04T07:04:19.885Z,0.52
2023-05-04T07:05:19.940Z,0.51
2023-05-04T07:06:19.929Z,0.55
2023-05-04T07:07:20.005Z,0.50
2023-05-04T07:08:20.007Z,0.51
2023-05-04T07:09:20.047Z,0.53
2023-05-04T07:10:20.255Z,0.50
2023-05-04T07:11:20.077Z,0.54
2023-05-04T07:12:20.161Z,0.51
2023-05-04T07:13:20.192Z,0.51
2023-05-04T07:14:20.189Z,0.50
2023-05-04T07:15:20.242Z,0.51
2023-05-04T07:16:20.318Z,0.50
2023-05-04T07:17:20.294Z,0.54
2023-05-04T07:18:20.350Z,0.52
2023-05-04T07:19:20.404Z,0.51
2023-05-04T07:20:20.406Z,0.52
2023-05-04T07:21:27.476Z,0.54
2023-05-04T07:22:21.444Z,0.54
2023-05-04T07:23:20.448Z,0.51
2023-05-04T07:24:20.401Z,0.51
2023-05-04T07:25:20.478Z,0.49
2023-05-04T07:26:20.397Z,0.48
2023-05-04T07:27:20.391Z,0.50
2023-05-04T07:28:20.747Z,0.52
2023-05-04T07:29:20.474Z,0.52
2023-05-04T07:30:20.476Z,0.53
2023-05-04T07:31:20.398Z,0.53
2023-05-04T07:32:20.525Z,0.57
2023-05-04T07:33:20.420Z,0.70
2023-05-04T07:34:23.256Z,0.79
2023-05-04T07:35:20.400Z,0.80
2023-05-04T07:36:20.382Z,0.83
2023-05-04T07:37:20.753Z,0.90
2023-05-04T07:38:20.421Z,1.02
2023-05-04T07:39:20.429Z,1.13
2023-05-04T07:40:20.406Z,1.02
2023-05-04T07:41:20.379Z,0.87
2023-05-04T07:42:20.376Z,0.85
2023-05-04T07:43:20.399Z,0.82
2023-05-04T07:44:20.340Z,0.79
2023-05-04T07:45:20.338Z,0.76
2023-05-04T07:46:20.407Z,0.74
2023-05-04T07:47:20.422Z,0.72
2023-05-04T07:48:20.825Z,0.72
2023-05-04T07:49:20.301Z,0.73
2023-05-04T07:50:20.312Z,0.74
2023-05-04T07:51:20.299Z,0.70
2023-05-04T07:52:20.286Z,0.69
2023-05-04T07:53:20.351Z,0.70
2023-05-04T07:54:22.546Z,0.69
2023-05-04T07:55:20.476Z,0.69
2023-05-04T07:56:20.485Z,0.70
2023-05-04T07:57:20.496Z,0.62
2023-05-04T07:58:20.589Z,0.59
2023-05-04T07:59:21.031Z,0.58
2023-05-04T08:00:20.679Z,0.56
2023-05-04T08:01:20.681Z,0.54
2023-05-04T08:02:20.766Z,0.56
2023-05-04T08:03:20.854Z,0.61
2023-05-04T08:04:20.764Z,0.60
2023-05-04T08:05:20.807Z,0.62
2023-05-04T08:06:20.850Z,0.61
2023-05-04T08:07:20.913Z,0.65
2023-05-04T08:08:21.743Z,0.67
2023-05-04T08:09:21.030Z,0.65
2023-05-04T08:10:21.020Z,0.58
2023-05-04T08:11:21.906Z,0.57
2023-05-04T08:12:21.056Z,0.52
2023-05-04T08:13:21.110Z,0.51
2023-05-04T08:14:21.185Z,0.53
2023-05-04T08:15:21.433Z,0.53
2023-05-04T08:16:21.244Z,0.55
2023-05-04T08:17:21.303Z,0.55
2023-05-04T08:18:21.369Z,0.51
2023-05-04T08:19:21.377Z,0.53
2023-05-04T08:20:23.046Z,0.50
2023-05-04T08:21:22.353Z,0.53
2023-05-04T08:22:21.503Z,0.65
2023-05-04T08:23:21.822Z,0.84
2023-05-04T08:24:21.574Z,0.91
2023-05-04T08:25:21.672Z,1.02
2023-05-04T08:26:21.696Z,1.08
2023-05-04T08:27:21.676Z,1.12
2023-05-04T08:28:21.835Z,1.17
2023-05-04T08:29:21.682Z,1.22
2023-05-04T08:30:21.713Z,1.30
2023-05-04T08:31:21.790Z,1.33
2023-05-04T08:32:21.827Z,1.49
2023-05-04T08:33:21.937Z,1.46
2023-05-04T08:34:21.791Z,1.48
2023-05-04T08:35:21.796Z,1.53
2023-05-04T08:36:21.813Z,1.56
2023-05-04T08:37:21.854Z,1.56
2023-05-04T08:38:22.285Z,1.55
2023-05-04T08:39:22.763Z,1.61
2023-05-04T08:40:21.870Z,1.54
2023-05-04T08:41:21.933Z,1.64
2023-05-04T08:42:21.874Z,1.68
2023-05-04T08:43:22.008Z,1.68
2023-05-04T08:44:21.898Z,1.72
2023-05-04T08:45:22.009Z,1.84
2023-05-04T08:46:21.967Z,1.94
2023-05-04T08:47:22.152Z,2.00
2023-05-04T08:48:21.921Z,2.07
2023-05-04T08:49:21.996Z,2.16
2023-05-04T08:50:21.966Z,2.15
2023-05-04T08:51:21.928Z,2.28
2023-05-04T08:52:21.913Z,2.34
2023-05-04T08:53:21.925Z,2.34
2023-05-04T08:54:21.914Z,2.46
2023-05-04T08:55:21.901Z,2.39
2023-05-04T08:56:21.959Z,2.51
2023-05-04T08:57:21.929Z,2.61
2023-05-04T08:58:21.957Z,2.61
2023-05-04T08:59:21.969Z,2.68
2023-05-04T09:00:22.080Z,2.72
2023-05-04T09:01:22.246Z,2.77
2023-05-04T09:02:22.074Z,2.93
2023-05-04T09:03:22.192Z,2.98
2023-05-04T09:04:22.102Z,3.10
2023-05-04T09:05:22.163Z,3.26
2023-05-04T09:06:22.209Z,3.58
2023-05-04T09:07:22.322Z,3.64
2023-05-04T09:08:22.352Z,3.73
2023-05-04T09:09:22.344Z,3.74
2023-05-04T09:10:22.416Z,3.92
2023-05-04T09:11:22.490Z,4.05
2023-05-04T09:12:22.671Z,4.27
2023-05-04T09:13:22.661Z,4.18
2023-05-04T09:14:22.657Z,4.38
2023-05-04T09:15:22.727Z,4.49
2023-05-04T09:16:22.823Z,4.60
2023-05-04T09:17:22.853Z,4.62
2023-05-04T09:18:22.949Z,4.77
2023-05-04T09:19:22.949Z,4.93
2023-05-04T09:20:23.041Z,4.98
2023-05-04T09:21:23.069Z,4.97
2023-05-04T09:22:23.230Z,5.10
2023-05-04T09:23:23.205Z,5.24
2023-05-04T09:24:23.238Z,5.40
2023-05-04T09:25:23.302Z,5.52
2023-05-04T09:26:23.340Z,5.72
2023-05-04T09:27:23.350Z,5.64
2023-05-04T09:28:23.423Z,5.84
2023-05-04T09:29:23.776Z,5.90
2023-05-04T09:30:23.505Z,6.01
2023-05-04T09:31:24.449Z,6.03
2023-05-04T09:32:23.640Z,6.19
2023-05-04T09:33:23.809Z,6.18
2023-05-04T09:34:23.634Z,6.40
2023-05-04T09:35:32.453Z,5.88
2023-05-04T09:36:24.656Z,5.90
2023-05-04T09:37:23.705Z,5.95
2023-05-04T09:38:23.647Z,6.10
2023-05-04T09:39:23.631Z,6.32
2023-05-04T09:40:23.702Z,6.74
2023-05-04T09:41:24.341Z,7.07
2023-05-04T09:42:23.669Z,7.04
2023-05-04T09:43:23.633Z,7.11
2023-05-04T09:44:23.623Z,7.22
2023-05-04T09:45:23.628Z,7.29
2023-05-04T09:46:23.616Z,7.00
2023-05-04T09:47:23.591Z,7.11
2023-05-04T09:48:23.581Z,7.17
2023-05-04T09:49:23.616Z,7.29
2023-05-04T09:50:23.753Z,6.94
2023-05-04T09:51:23.578Z,6.83
2023-05-04T09:52:23.540Z,6.96
2023-05-04T09:53:23.611Z,6.82
2023-05-04T09:54:23.507Z,6.80
2023-05-04T09:55:23.511Z,6.94
2023-05-04T09:56:23.511Z,6.83
2023-05-04T09:57:23.490Z,6.65
2023-05-04T09:58:23.533Z,6.71
2023-05-04T09:59:23.546Z,8.56
2023-05-04T10:00:23.588Z,20.47
2023-05-04T10:01:23.829Z,11.52
2023-05-04T10:02:23.772Z,8.77
2023-05-04T10:03:23.920Z,7.34
2023-05-04T10:04:23.827Z,7.38
2023-05-04T10:05:23.930Z,7.20
2023-05-04T10:06:24.032Z,7.48
2023-05-04T10:07:24.072Z,7.45
2023-05-04T10:08:24.086Z,7.33
2023-05-04T10:09:24.095Z,7.58
2023-05-04T10:10:24.149Z,7.33
2023-05-04T10:11:24.205Z,6.99
2023-05-04T10:12:24.244Z,7.19
2023-05-04T10:13:24.306Z,7.27
2023-05-04T10:14:24.366Z,7.38
2023-05-04T10:15:24.420Z,7.48
2023-05-04T10:16:24.483Z,7.35
2023-05-04T10:17:24.520Z,7.17
2023-05-04T10:18:24.807Z,7.12
2023-05-04T10:19:24.571Z,6.96
2023-05-04T10:20:24.649Z,7.09
2023-05-04T10:21:24.686Z,7.26
2023-05-04T10:22:24.709Z,7.60
2023-05-04T10:23:24.791Z,7.93
2023-05-04T10:24:24.830Z,8.16
2023-05-04T10:25:24.868Z,8.38
2023-05-04T10:26:25.885Z,8.88
2023-05-04T10:27:24.982Z,8.66
2023-05-04T10:28:25.040Z,7.94
2023-05-04T10:29:25.066Z,7.59
2023-05-04T10:30:25.111Z,8.32
2023-05-04T10:31:25.140Z,8.33
2023-05-04T10:32:25.342Z,8.70
2023-05-04T10:33:25.265Z,8.21
2023-05-04T10:34:25.325Z,7.16
2023-05-04T10:35:25.352Z,7.64
2023-05-04T10:36:25.488Z,7.96
2023-05-04T10:37:25.432Z,8.08
2023-05-04T10:38:25.512Z,8.13
2023-05-04T10:39:25.531Z,8.20
2023-05-04T10:40:25.756Z,8.38
2023-05-04T10:41:25.659Z,8.17
2023-05-04T10:42:26.444Z,8.19
2023-05-04T10:43:25.811Z,8.12
2023-05-04T10:44:25.844Z,8.11
2023-05-04T10:45:25.874Z,8.09
2023-05-04T10:46:25.860Z,8.03
2023-05-04T10:47:25.895Z,7.95
2023-05-04T10:48:25.860Z,7.84
2023-05-04T10:49:25.851Z,7.74
2023-05-04T10:50:25.856Z,7.73
2023-05-04T10:51:32.676Z,7.78
2023-05-04T10:52:26.831Z,7.79
2023-05-04T10:53:26.371Z,7.79
2023-05-04T10:54:25.825Z,7.79
2023-05-04T10:55:25.848Z,7.67
2023-05-04T10:56:25.834Z,7.58
2023-05-04T10:57:25.806Z,7.58
2023-05-04T10:58:25.833Z,7.58
2023-05-04T10:59:25.809Z,7.51
2023-05-04T11:00:25.807Z,7.37
2023-05-04T11:01:25.818Z,7.32
2023-05-04T11:02:25.838Z,7.26
2023-05-04T11:03:25.917Z,7.27
2023-05-04T11:04:26.364Z,7.15
2023-05-04T11:05:25.921Z,7.16
2023-05-04T11:06:25.782Z,7.17
2023-05-04T11:07:25.816Z,7.00
2023-05-04T11:08:25.910Z,6.98
2023-05-04T11:09:25.826Z,7.01
2023-05-04T11:10:26.204Z,6.72
2023-05-04T11:11:25.872Z,6.80
2023-05-04T11:12:25.928Z,6.69
2023-05-04T11:13:26.078Z,6.86
2023-05-04T11:14:26.026Z,6.65
2023-05-04T11:15:26.051Z,6.37
2023-05-04T11:16:26.132Z,5.93
2023-05-04T11:17:28.443Z,5.86
2023-05-04T11:18:26.108Z,6.18
2023-05-04T11:19:26.105Z,6.38
2023-05-04T11:20:26.085Z,6.51
2023-05-04T11:21:26.226Z,6.57
2023-05-04T11:22:26.122Z,6.50
2023-05-04T11:23:26.090Z,6.62
2023-05-04T11:24:26.066Z,6.71
2023-05-04T11:25:26.068Z,6.70
2023-05-04T11:26:26.042Z,6.71
2023-05-04T11:27:26.100Z,6.72
2023-05-04T11:28:26.086Z,6.74
2023-05-04T11:29:26.352Z,6.76
2023-05-04T11:30:26.022Z,6.70
2023-05-04T11:31:26.067Z,6.64
2023-05-04T11:32:26.016Z,6.64
2023-05-04T11:33:25.991Z,6.82
2023-05-04T11:34:26.019Z,6.65
2023-05-04T11:35:26.005Z,6.70
2023-05-04T11:36:26.016Z,6.59
2023-05-04T11:37:25.960Z,6.63
2023-05-04T11:38:25.950Z,6.62
2023-05-04T11:39:26.372Z,6.59
2023-05-04T11:40:25.974Z,6.60
2023-05-04T11:41:25.973Z,6.55
2023-05-04T11:42:25.979Z,6.54
2023-05-04T11:43:26.397Z,6.50
2023-05-04T11:44:28.892Z,6.52
2023-05-04T11:45:25.960Z,6.53
2023-05-04T11:46:26.926Z,6.53
2023-05-04T11:47:25.963Z,6.58
2023-05-04T11:48:26.383Z,6.45
2023-05-04T11:49:25.898Z,6.42
2023-05-04T11:50:25.861Z,6.49
2023-05-04T11:51:25.881Z,6.54
2023-05-04T11:52:25.879Z,6.42
2023-05-04T11:53:25.861Z,6.48
2023-05-04T11:54:25.836Z,6.46
2023-05-04T11:55:25.852Z,6.34
2023-05-04T11:56:25.823Z,6.33
2023-05-04T11:57:25.828Z,6.27
2023-05-04T11:58:25.820Z,6.31
2023-05-04T11:59:25.838Z,6.22
2023-05-04T12:00:25.799Z,6.26
2023-05-04T12:01:25.823Z,6.26
2023-05-04T12:02:25.815Z,6.19
2023-05-04T12:03:27.959Z,6.22
2023-05-04T12:04:26.794Z,6.23
2023-05-04T12:05:25.776Z,6.21
2023-05-04T12:06:25.742Z,6.24
2023-05-04T12:07:25.733Z,6.23
2023-05-04T12:08:25.753Z,6.17
2023-05-04T12:09:25.774Z,6.19
2023-05-04T12:10:25.718Z,6.02
2023-05-04T12:11:26.231Z,6.16
2023-05-04T12:12:25.716Z,6.12
2023-05-04T12:13:25.697Z,5.94
2023-05-04T12:14:25.705Z,5.98
2023-05-04T12:15:25.766Z,5.97
2023-05-04T12:16:25.816Z,6.08
2023-05-04T12:17:25.891Z,6.06
2023-05-04T12:18:25.914Z,5.88
2023-05-04T12:19:25.926Z,6.03
2023-05-04T12:20:25.987Z,5.84
2023-05-04T12:21:26.019Z,5.80
2023-05-04T12:22:26.108Z,5.69
2023-05-04T12:23:26.168Z,5.74
2023-05-04T12:24:26.205Z,5.71
2023-05-04T12:25:26.273Z,5.71
2023-05-04T12:26:26.334Z,5.68
2023-05-04T12:27:26.338Z,5.76
2023-05-04T12:28:26.422Z,5.73
2023-05-04T12:29:26.467Z,5.77
2023-05-04T12:30:26.493Z,5.68
2023-05-04T12:31:26.624Z,5.59
2023-05-04T12:32:26.638Z,5.72
2023-05-04T12:33:26.674Z,5.66
2023-05-04T12:34:26.863Z,5.51
2023-05-04T12:35:26.764Z,5.49
2023-05-04T12:36:26.832Z,5.56
2023-05-04T12:37:26.871Z,5.44
2023-05-04T12:38:26.918Z,5.52
2023-05-04T12:39:26.987Z,5.56
2023-05-04T12:40:28.569Z,5.49
2023-05-04T12:41:27.134Z,5.52
2023-05-04T12:42:27.147Z,5.42
2023-05-04T12:43:27.214Z,5.39
2023-05-04T12:44:27.337Z,5.43
2023-05-04T12:45:27.304Z,5.35
2023-05-04T12:46:27.425Z,5.30
2023-05-04T12:47:27.489Z,5.34
2023-05-04T12:48:27.502Z,5.23
2023-05-04T12:49:27.555Z,5.32
2023-05-04T12:50:27.612Z,5.24
2023-05-04T12:51:27.676Z,5.21
2023-05-04T12:52:27.745Z,5.24
2023-05-04T12:53:27.872Z,5.22
2023-05-04T12:54:27.855Z,5.13
2023-05-04T12:55:27.927Z,5.18
2023-05-04T12:56:27.973Z,5.09
2023-05-04T12:57:28.042Z,5.14
2023-05-04T12:58:28.079Z,5.12
2023-05-04T12:59:28.170Z,5.05
2023-05-04T13:00:28.211Z,5.07
2023-05-04T13:01:28.325Z,4.96
2023-05-04T13:02:28.373Z,5.10
2023-05-04T13:03:28.539Z,5.05
2023-05-04T13:04:28.478Z,5.11
2023-05-04T13:05:28.614Z,4.97
2023-05-04T13:06:28.596Z,5.03
2023-05-04T13:07:28.687Z,4.93
2023-05-04T13:08:28.740Z,4.93
2023-05-04T13:09:28.806Z,4.92
2023-05-04T13:10:28.845Z,4.98
2023-05-04T13:11:28.919Z,4.95
2023-05-04T13:12:28.996Z,4.92
2023-05-04T13:13:29.025Z,4.82
2023-05-04T13:14:29.125Z,4.84
2023-05-04T13:15:29.169Z,4.83
2023-05-04T13:16:29.280Z,4.89
2023-05-04T13:17:29.300Z,4.82
2023-05-04T13:18:29.357Z,4.74